Time;durP1;ratioP1;P1;durP2;ratioP2;P2;SDS_P1;SDS_P2;PMS_P1;PMS_P2;Temp;Humidity;BMP_temperature;BMP_pressure;BME280_temperature;BME280_humidity;BME280_pressure;Samples;Min_cycle;Max_cycle;Signal;HPM_P1;HPM_P2
2023/04/18 00:01:49;;;;;;;14.80;13.13;;;;;;;9.63;80.82;99133.69;5025577;27;102761;-57
2023/04/18 00:04:17;;;;;;;13.80;12.33;;;;;;;9.60;80.78;99136.50;5021620;27;103458;-58
2023/04/18 00:06:48;;;;;;;14.13;12.43;;;;;;;9.58;80.74;99133.13;5021170;27;106105;-57
2023/04/18 00:09:19;;;;;;;13.43;12.00;;;;;;;9.79;80.48;99126.53;5006760;27;102838;-58
2023/04/18 00:11:47;;;;;;;13.37;12.03;;;;;;;9.50;81.03;99130.09;5026922;27;103134;-57
2023/04/18 00:14:16;;;;;;;13.47;11.60;;;;;;;9.86;80.00;99125.19;5023692;27;104572;-57
2023/04/18 00:16:45;;;;;;;14.20;12.70;;;;;;;10.02;79.02;99122.41;5022270;27;104290;-57
2023/04/18 00:19:15;;;;;;;17.23;12.60;;;;;;;10.17;78.50;99123.28;5021305;27;103240;-58
2023/04/18 00:21:43;;;;;;;13.23;11.87;;;;;;;10.32;78.09;99122.28;5021695;27;102717;-57
2023/04/18 00:24:13;;;;;;;12.43;11.13;;;;;;;10.55;76.96;99115.53;5005123;27;104375;-57
2023/04/18 00:26:41;;;;;;;15.17;12.90;;;;;;;10.31;77.25;99120.59;5024240;27;103265;-57
2023/04/18 00:29:09;;;;;;;14.83;12.57;;;;;;;10.35;76.98;99115.03;5020506;27;102622;-57
2023/04/18 00:31:37;;;;;;;13.70;12.27;;;;;;;10.12;78.09;99114.78;5020454;27;102804;-57
2023/04/18 00:34:06;;;;;;;13.23;11.40;;;;;;;10.18;78.37;99114.41;5027844;27;103342;-58
2023/04/18 00:36:34;;;;;;;12.50;11.27;;;;;;;10.04;79.04;99111.78;4988132;27;105551;-57
2023/04/18 00:39:02;;;;;;;12.23;11.03;;;;;;;10.41;78.05;99111.16;5001469;27;103115;-58
2023/04/18 00:41:32;;;;;;;15.37;13.13;;;;;;;10.37;77.46;99099.06;5023518;27;102683;-57
2023/04/18 00:44:00;;;;;;;13.37;12.07;;;;;;;10.35;78.13;99109.75;5027243;27;103440;-57
2023/04/18 00:46:28;;;;;;;12.50;9.73;;;;;;;10.55;77.43;99102.31;5008307;27;104618;-57
2023/04/18 00:48:56;;;;;;;11.27;9.90;;;;;;;10.68;76.93;99098.75;5019983;27;102760;-58
2023/04/18 00:51:26;;;;;;;14.43;12.90;;;;;;;10.38;76.60;99106.06;5022852;27;102834;-58
2023/04/18 00:53:55;;;;;;;11.57;10.33;;;;;;;10.46;77.96;99103.75;5022126;27;104427;-57
2023/04/18 00:56:24;;;;;;;14.33;12.80;;;;;;;10.53;76.83;99099.75;5026857;27;103142;-57
2023/04/18 00:58:54;;;;;;;13.77;12.23;;;;;;;10.50;77.24;99102.59;5007187;27;102681;-57
2023/04/18 01:01:22;;;;;;;13.53;12.17;;;;;;;10.07;78.71;99095.75;4996781;27;102748;-57
2023/04/18 01:03:51;;;;;;;14.87;12.73;;;;;;;9.94;78.86;99102.75;4990590;27;104473;-57
2023/04/18 01:06:19;;;;;;;12.97;11.53;;;;;;;10.14;79.08;99095.28;5020731;27;103246;-58
2023/04/18 01:08:48;;;;;;;13.00;11.70;;;;;;;10.10;79.19;99096.41;5002396;27;102869;-57
2023/04/18 01:11:17;;;;;;;13.27;11.83;;;;;;;9.94;80.07;99094.84;5001782;27;102805;-57
2023/04/18 01:14:00;;;;;;;14.73;12.90;;;;;;;9.97;79.97;99095.47;5005814;27;103290;-57
2023/04/18 01:16:32;;;;;;;14.90;12.60;;;;;;;9.60;81.08;99086.38;5023570;27;103118;-57
2023/04/18 01:19:01;;;;;;;17.20;11.27;;;;;;;9.83;80.92;99083.16;5003744;27;104707;-58
2023/04/18 01:21:30;;;;;;;12.73;11.40;;;;;;;9.87;80.26;99089.09;5020760;27;103179;-58
2023/04/18 01:24:00;;;;;;;13.53;12.13;;;;;;;10.02;79.51;99074.06;5020606;27;104472;-58
2023/04/18 01:26:30;;;;;;;13.27;11.67;;;;;;;9.54;81.24;99076.22;5019782;27;103382;-58
2023/04/18 01:28:58;;;;;;;14.13;12.63;;;;;;;9.67;80.36;99079.78;5003489;27;102794;-58
2023/04/18 01:31:26;;;;;;;13.00;11.70;;;;;;;9.36;81.79;99066.81;5022290;27;104789;-57
2023/04/18 01:33:54;;;;;;;12.97;10.33;;;;;;;9.98;80.20;99059.38;5003738;27;103321;-58
2023/04/18 01:36:23;;;;;;;15.60;12.47;;;;;;;9.65;81.14;99057.09;5006131;27;104307;-57
2023/04/18 01:38:51;;;;;;;13.57;12.13;;;;;;;9.49;81.39;99062.47;5006147;27;103031;-57
2023/04/18 01:41:19;;;;;;;12.50;11.20;;;;;;;9.63;81.24;99061.59;5004551;27;102636;-57
2023/04/18 01:43:50;;;;;;;17.03;13.27;;;;;;;9.34;82.40;99052.88;5008982;27;104404;-57
2023/04/18 01:46:18;;;;;;;14.90;13.30;;;;;;;9.22;81.98;99058.88;5026936;27;104358;-57
2023/04/18 01:48:48;;;;;;;13.63;12.23;;;;;;;9.24;82.22;99063.13;5023065;27;102651;-57
2023/04/18 01:51:20;;;;;;;14.50;12.73;;;;;;;9.26;82.62;99055.13;5003023;27;102686;-57
2023/04/18 01:53:48;;;;;;;14.83;12.07;;;;;;;9.00;82.66;99053.22;4999205;27;104353;-57
2023/04/18 01:56:17;;;;;;;15.70;12.73;;;;;;;9.52;81.95;99054.34;5017707;27;103021;-57
2023/04/18 01:58:45;;;;;;;16.23;12.93;;;;;;;9.22;83.41;99056.25;5006064;27;103152;-57
2023/04/18 02:01:15;;;;;;;14.70;13.03;;;;;;;9.16;82.76;99051.34;5005588;27;102667;-57
2023/04/18 02:03:43;;;;;;;14.33;12.90;;;;;;;9.09;83.55;99044.78;5008553;27;105493;-57
2023/04/18 02:06:13;;;;;;;14.40;12.87;;;;;;;9.04;83.07;99049.47;5028614;27;103000;-57
2023/04/18 02:08:41;;;;;;;14.27;12.53;;;;;;;9.13;82.58;99049.75;5027514;27;103941;-61
2023/04/18 02:11:09;;;;;;;14.50;13.00;;;;;;;9.02;82.78;99048.72;5028065;27;102703;-61
2023/04/18 02:13:37;;;;;;;16.67;12.33;;;;;;;8.95;83.02;99045.63;5013655;27;104475;-61
2023/04/18 02:16:12;;;;;;;13.63;11.90;;;;;;;8.93;83.52;99046.63;5032793;27;103209;-61
2023/04/18 02:18:51;;;;;;;12.43;11.13;;;;;;;8.65;83.94;99053.53;5032010;27;102681;-60
2023/04/18 02:21:20;;;;;;;14.07;11.40;;;;;;;8.94;82.95;99051.81;5030969;27;102760;-60
2023/04/18 02:23:52;;;;;;;14.17;12.03;;;;;;;8.64;84.08;99051.00;4995812;27;105937;-61
2023/04/18 02:26:21;;;;;;;13.77;11.80;;;;;;;8.83;83.45;99053.38;5009934;27;104485;-60
2023/04/18 02:28:50;;;;;;;14.13;12.03;;;;;;;9.06;82.80;99052.88;5003345;27;102659;-61
2023/04/18 02:31:18;;;;;;;12.93;11.63;;;;;;;8.86;83.26;99061.13;5031482;27;102667;-61
2023/04/18 02:33:46;;;;;;;12.90;11.30;;;;;;;9.11;82.74;99056.06;5016769;27;103231;-61
2023/04/18 02:36:17;;;;;;;14.50;11.80;;;;;;;9.00;82.97;99051.44;5032996;27;104187;-61
2023/04/18 02:38:45;;;;;;;12.50;11.20;;;;;;;9.01;83.35;99055.75;5030873;27;103092;-60
2023/04/18 02:41:16;;;;;;;13.50;11.33;;;;;;;9.00;83.35;99053.22;5028999;27;102628;-60
2023/04/18 02:43:44;;;;;;;12.67;11.20;;;;;;;8.92;83.49;99052.84;5013388;27;104442;-60
2023/04/18 02:46:15;;;;;;;13.07;11.67;;;;;;;8.99;82.90;99051.53;5031579;27;103282;-61
2023/04/18 02:48:46;;;;;;;11.70;10.50;;;;;;;8.91;83.15;99048.50;5015154;27;102870;-60
2023/04/18 02:51:18;;;;;;;13.00;11.00;;;;;;;9.03;83.02;99046.00;5032279;27;102580;-60
2023/04/18 02:53:53;;;;;;;13.33;11.93;;;;;;;8.68;83.82;99053.34;5007956;27;103341;-61
2023/04/18 02:56:22;;;;;;;11.97;10.77;;;;;;;8.64;84.20;99054.50;5012559;27;105195;-60
2023/04/18 02:59:23;;;;;;;13.97;11.00;;;;;;;8.66;84.28;99049.97;5014833;27;103365;-60
2023/04/18 03:02:23;;;;;;;14.60;11.30;;;;;;;8.62;84.23;99048.44;5022163;27;102669;-61
2023/04/18 03:04:56;;;;;;;13.07;10.87;;;;;;;8.67;84.29;99051.66;5008258;27;103313;-60
2023/04/18 03:07:25;;;;;;;15.93;11.77;;;;;;;8.55;84.64;99049.75;5014535;27;103018;-60
2023/04/18 03:09:54;;;;;;;13.00;11.33;;;;;;;8.65;84.86;99055.31;5031770;27;102611;-60
2023/04/18 03:12:26;;;;;;;14.33;11.47;;;;;;;8.75;84.00;99053.84;5010281;27;102813;-61
2023/04/18 03:14:55;;;;;;;13.17;11.10;;;;;;;8.88;83.32;99053.97;5033417;27;103194;-61
2023/04/18 03:17:23;;;;;;;13.47;11.93;;;;;;;8.76;83.38;99054.72;5017011;27;104626;-60
2023/04/18 03:19:52;;;;;;;13.37;11.23;;;;;;;8.65;84.21;99056.16;5015269;27;102598;-60
2023/04/18 03:22:20;;;;;;;11.83;10.33;;;;;;;8.54;84.46;99057.72;5007813;27;102789;-61
2023/04/18 03:25:00;;;;;;;12.37;10.93;;;;;;;8.33;85.52;99051.94;5011885;27;103332;-60
2023/04/18 03:27:42;;;;;;;12.07;10.77;;;;;;;8.70;84.74;99056.75;5014743;27;104219;-60
2023/04/18 03:30:14;;;;;;;16.00;11.80;;;;;;;8.55;84.87;99056.81;5029387;27;102645;-60
2023/04/18 03:32:45;;;;;;;12.03;10.73;;;;;;;8.74;84.38;99062.69;5011495;27;102659;-60
2023/04/18 03:35:13;;;;;;;13.17;11.80;;;;;;;8.46;85.23;99052.94;5010210;27;104363;-61
2023/04/18 03:37:41;;;;;;;13.77;11.83;;;;;;;8.54;84.75;99053.31;5014169;27;103417;-61
2023/04/18 03:40:12;;;;;;;13.27;11.17;;;;;;;8.40;84.60;99055.91;5006414;27;102609;-60
2023/04/18 03:42:41;;;;;;;12.63;11.33;;;;;;;8.53;84.15;99056.88;5010331;27;102779;-61
2023/04/18 03:45:11;;;;;;;12.87;11.30;;;;;;;8.49;83.35;99052.75;5016625;27;103150;-60
2023/04/18 03:47:40;;;;;;;13.97;11.57;;;;;;;8.61;83.70;99057.31;5014312;27;103219;-60
2023/04/18 03:50:09;;;;;;;12.97;11.60;;;;;;;8.52;83.59;99057.84;5033474;27;102618;-61
2023/04/18 03:52:39;;;;;;;14.70;12.83;;;;;;;8.37;83.91;99055.22;5031576;27;102914;-60
2023/04/18 03:55:07;;;;;;;12.73;10.87;;;;;;;8.71;83.91;99061.09;5010999;27;103306;-61
2023/04/18 03:57:37;;;;;;;13.37;11.53;;;;;;;8.52;83.84;99062.25;5013386;27;103050;-61
2023/04/18 04:00:11;;;;;;;13.50;12.10;;;;;;;8.52;83.47;99060.47;5007924;27;102995;-60
2023/04/18 04:02:43;;;;;;;14.80;12.40;;;;;;;8.67;83.32;99056.91;5031086;27;102848;-61
2023/04/18 04:05:18;;;;;;;14.00;12.50;;;;;;;8.57;83.52;99060.19;5006992;27;104525;-62
2023/04/18 04:07:46;;;;;;;11.83;10.60;;;;;;;8.95;82.83;99065.84;5006022;27;103767;-62
2023/04/18 04:10:15;;;;;;;13.37;11.97;;;;;;;8.73;83.01;99067.09;5025283;27;103464;-63
2023/04/18 04:12:45;;;;;;;13.07;11.77;;;;;;;8.63;83.15;99060.69;5028392;27;103758;-63
2023/04/18 04:15:13;;;;;;;17.00;13.77;;;;;;;8.35;84.56;99071.13;5026201;27;104507;-61
2023/04/18 04:17:50;;;;;;;17.73;12.57;;;;;;;8.21;85.47;99072.81;5023618;27;103158;-61
2023/04/18 04:20:22;;;;;;;14.80;13.10;;;;;;;8.26;84.87;99071.59;5005564;27;103745;-60
2023/04/18 04:22:57;;;;;;;14.67;13.17;;;;;;;8.35;83.96;99071.13;5003614;27;102807;-60
2023/04/18 04:25:27;;;;;;;14.60;12.63;;;;;;;8.19;85.45;99065.00;5007160;27;103504;-60
2023/04/18 04:28:01;;;;;;;14.17;11.97;;;;;;;8.02;85.97;99063.34;5009039;27;103184;-61
2023/04/18 04:30:32;;;;;;;14.80;12.37;;;;;;;8.28;84.96;99063.69;5009280;27;102605;-60
2023/04/18 04:33:02;;;;;;;15.57;12.60;;;;;;;8.42;84.34;99055.84;5008768;27;102708;-60
2023/04/18 04:35:31;;;;;;;16.63;12.90;;;;;;;8.22;85.05;99070.09;5022512;27;104329;-60
2023/04/18 04:38:00;;;;;;;14.30;12.80;;;;;;;8.40;84.70;99065.59;5012668;27;104260;-61
2023/04/18 04:40:38;;;;;;;15.10;13.37;;;;;;;7.91;86.29;99070.97;4996991;27;102615;-60
2023/04/18 04:43:14;;;;;;;14.60;12.97;;;;;;;8.06;86.03;99069.25;5009238;27;102686;-60
2023/04/18 04:45:50;;;;;;;16.87;12.80;;;;;;;7.96;86.19;99071.56;4985775;27;105525;-60
2023/04/18 04:48:23;;;;;;;18.23;13.87;;;;;;;7.97;86.09;99075.88;5022615;27;104461;-60
2023/04/18 04:50:54;;;;;;;15.20;12.97;;;;;;;8.15;85.64;99068.75;5007824;27;102685;-61
2023/04/18 04:53:23;;;;;;;16.63;13.50;;;;;;;8.30;85.67;99075.81;5014533;27;102677;-61
2023/04/18 04:55:52;;;;;;;14.53;13.03;;;;;;;8.30;84.95;99083.72;5010627;27;104495;-61
2023/04/18 04:58:21;;;;;;;14.57;12.77;;;;;;;8.73;83.78;99077.63;5008064;27;103274;-61
2023/04/18 05:01:16;;;;;;;14.27;12.17;;;;;;;8.63;83.46;99080.91;5023434;27;102776;-61
2023/04/18 05:03:45;;;;;;;15.20;12.67;;;;;;;8.47;83.48;99075.69;5002752;27;102677;-60
2023/04/18 05:06:19;;;;;;;16.67;13.10;;;;;;;8.67;82.70;99085.91;5012682;27;103723;-60
2023/04/18 05:08:47;;;;;;;14.47;12.97;;;;;;;8.33;83.99;99082.69;5009372;27;103115;-60
2023/04/18 05:11:16;;;;;;;15.10;12.70;;;;;;;8.55;84.71;99088.41;5028463;27;102604;-61
2023/04/18 05:13:45;;;;;;;15.27;13.67;;;;;;;8.40;84.77;99084.88;5027124;27;102896;-61
2023/04/18 05:16:13;;;;;;;13.93;12.47;;;;;;;8.18;84.11;99089.63;5013223;27;103508;-60
2023/04/18 05:18:42;;;;;;;13.70;11.57;;;;;;;8.41;84.32;99081.31;5030016;27;103758;-61
2023/04/18 05:21:10;;;;;;;17.80;12.87;;;;;;;8.49;83.38;99084.34;5032924;27;102657;-60
2023/04/18 05:23:38;;;;;;;14.20;11.83;;;;;;;8.67;82.75;99082.44;5010401;27;102619;-61
2023/04/18 05:26:06;;;;;;;14.60;12.87;;;;;;;8.17;83.96;99098.44;5031917;27;103430;-60
2023/04/18 05:28:34;;;;;;;15.47;12.70;;;;;;;8.28;83.49;99090.81;5029608;27;103890;-60
2023/04/18 05:31:03;;;;;;;15.23;12.60;;;;;;;8.42;83.56;99093.53;5030597;27;102552;-60
2023/04/18 05:33:32;;;;;;;14.30;12.13;;;;;;;8.74;82.59;99083.75;5025391;27;102798;-61
2023/04/18 05:36:00;;;;;;;14.07;12.40;;;;;;;8.56;82.87;99090.94;5030143;27;103348;-61
2023/04/18 05:38:28;;;;;;;14.07;12.20;;;;;;;8.42;83.32;99090.06;5012631;27;103404;-60
2023/04/18 05:40:59;;;;;;;14.97;12.40;;;;;;;8.41;83.40;99094.47;5030882;27;102527;-60
2023/04/18 05:43:27;;;;;;;15.83;12.33;;;;;;;8.62;82.35;99095.84;5034984;27;103077;-60
2023/04/18 05:45:56;;;;;;;13.50;11.90;;;;;;;8.74;82.12;99089.88;5023934;27;103535;-61
2023/04/18 05:48:26;;;;;;;13.47;11.60;;;;;;;8.82;82.49;99102.59;5028508;27;103250;-60
2023/04/18 05:50:54;;;;;;;14.03;12.10;;;;;;;8.79;81.52;99102.78;5006764;27;102969;-61
2023/04/18 05:53:22;;;;;;;15.07;12.60;;;;;;;8.62;81.78;99106.41;5009753;27;102688;-61
2023/04/18 05:55:50;;;;;;;13.47;10.70;;;;;;;9.01;82.64;99102.38;5027064;27;103189;-60
2023/04/18 05:58:18;;;;;;;15.60;11.30;;;;;;;9.18;81.49;99102.19;5027046;27;104487;-61
2023/04/18 06:00:47;;;;;;;15.87;12.63;;;;;;;9.09;81.49;99100.13;5030988;27;102981;-60
2023/04/18 06:03:15;;;;;;;13.43;12.03;;;;;;;8.95;81.84;99102.72;5007715;27;102657;-60
2023/04/18 06:05:45;;;;;;;14.47;12.93;;;;;;;8.72;82.68;99098.81;5008722;27;103170;-61
2023/04/18 06:08:13;;;;;;;16.00;12.23;;;;;;;8.75;82.15;99103.91;5031549;27;103963;-61
2023/04/18 06:10:41;;;;;;;14.87;11.77;;;;;;;8.54;83.17;99111.25;5029062;27;102565;-60
2023/04/18 06:13:10;;;;;;;16.10;13.27;;;;;;;8.51;84.72;99098.25;5027932;27;103104;-61
2023/04/18 06:15:38;;;;;;;13.80;12.33;;;;;;;8.64;83.85;99098.41;5026445;27;103163;-61
2023/04/18 06:18:06;;;;;;;14.53;11.63;;;;;;;8.77;83.29;99103.81;5029412;27;103401;-60
2023/04/18 06:20:35;;;;;;;16.23;13.47;;;;;;;8.75;83.39;99106.53;5027597;27;102675;-60
2023/04/18 06:23:04;;;;;;;15.47;13.40;;;;;;;8.89;82.24;99113.63;5008522;27;102624;-61
2023/04/18 06:25:32;;;;;;;14.23;12.73;;;;;;;8.63;84.03;99113.38;5006262;27;103534;-61
2023/04/18 06:28:00;;;;;;;15.50;12.47;;;;;;;8.63;83.62;99113.38;5012787;27;103354;-61
2023/04/18 06:30:28;;;;;;;16.23;13.27;;;;;;;8.79;82.90;99104.56;5028925;27;102952;-61
2023/04/18 06:32:57;;;;;;;15.57;12.77;;;;;;;8.45;84.29;99119.69;5006960;27;102721;-61
2023/04/18 06:35:25;;;;;;;14.87;12.83;;;;;;;8.96;83.68;99121.06;5027146;27;103380;-60
2023/04/18 06:37:54;;;;;;;14.90;12.47;;;;;;;8.80;83.54;99119.44;5028548;27;103267;-60
2023/04/18 06:40:24;;;;;;;14.03;12.37;;;;;;;8.60;84.54;99110.91;5032462;27;102974;-61
2023/04/18 06:42:52;;;;;;;15.90;13.20;;;;;;;8.65;84.06;99108.84;5028300;27;102667;-60
2023/04/18 06:45:20;;;;;;;17.30;13.03;;;;;;;8.69;84.13;99112.16;5007509;27;103672;-61
2023/04/18 06:47:50;;;;;;;14.97;12.67;;;;;;;8.68;83.65;99115.72;5027788;27;103100;-61
2023/04/18 06:50:18;;;;;;;14.40;12.90;;;;;;;8.81;83.86;99115.88;5028139;27;102608;-60
2023/04/18 06:52:47;;;;;;;15.87;13.23;;;;;;;8.80;84.06;99111.53;5031536;27;103746;-60
2023/04/18 06:55:17;;;;;;;15.13;13.30;;;;;;;8.68;84.30;99115.72;5005365;27;103167;-61
2023/04/18 06:57:47;;;;;;;16.33;13.00;;;;;;;8.83;84.03;99122.75;5021433;27;103196;-60
2023/04/18 07:00:16;;;;;;;14.03;12.53;;;;;;;9.08;82.56;99119.50;5002619;27;103292;-61
2023/04/18 07:02:44;;;;;;;13.93;11.70;;;;;;;9.29;83.00;99123.50;5031134;27;103867;-59
2023/04/18 07:05:13;;;;;;;13.90;12.20;;;;;;;9.42;82.08;99118.31;5026125;27;103404;-60
2023/04/18 07:07:44;;;;;;;14.40;11.70;;;;;;;9.11;82.72;99119.31;5029247;27;103747;-60
2023/04/18 07:10:13;;;;;;;15.83;12.53;;;;;;;9.32;82.35;99118.88;5032035;27;102917;-62
2023/04/18 07:12:44;;;;;;;14.20;11.47;;;;;;;9.19;81.87;99117.06;5009739;27;102700;-60
2023/04/18 07:15:15;;;;;;;16.47;11.97;;;;;;;9.26;82.19;99121.88;5021563;27;103430;-59
2023/04/18 07:17:44;;;;;;;13.47;12.10;;;;;;;9.16;83.05;99127.81;5025568;27;103641;-55
2023/04/18 07:20:12;;;;;;;13.93;12.43;;;;;;;8.92;83.54;99126.63;5027011;27;102541;-56
2023/04/18 07:22:41;;;;;;;14.73;12.07;;;;;;;9.07;83.46;99121.28;5030897;27;102634;-56
2023/04/18 07:25:09;;;;;;;13.90;11.70;;;;;;;9.09;83.09;99115.94;5028039;27;103178;-55
2023/04/18 07:27:37;;;;;;;18.33;13.10;;;;;;;9.39;82.67;99119.34;5006154;27;105573;-57
2023/04/18 07:30:07;;;;;;;13.70;12.23;;;;;;;9.47;83.23;99126.78;5021387;27;102658;-56
2023/04/18 07:32:39;;;;;;;13.40;11.97;;;;;;;9.52;82.39;99124.72;5007471;27;102709;-56
2023/04/18 07:35:08;;;;;;;13.20;11.80;;;;;;;9.41;82.53;99121.88;5022660;27;103516;-56
2023/04/18 07:37:36;;;;;;;14.13;12.23;;;;;;;9.29;82.90;99129.59;5029896;27;103208;-56
2023/04/18 07:40:07;;;;;;;14.03;12.03;;;;;;;9.95;81.70;99133.47;5009571;27;102874;-56
2023/04/18 07:42:35;;;;;;;15.13;12.90;;;;;;;9.82;80.31;99134.22;5025975;27;102775;-56
2023/04/18 07:45:04;;;;;;;15.00;12.47;;;;;;;9.84;80.95;99132.34;5024938;27;103153;-56
2023/04/18 07:47:32;;;;;;;15.93;12.37;;;;;;;9.89;80.53;99132.06;5003516;27;103088;-55
2023/04/18 07:50:03;;;;;;;13.73;11.40;;;;;;;9.50;81.23;99138.00;5029125;27;102743;-56
2023/04/18 07:52:31;;;;;;;15.43;11.93;;;;;;;9.67;82.19;99135.19;5030819;27;102631;-56
2023/04/18 07:54:59;;;;;;;14.03;12.53;;;;;;;9.51;82.30;99134.44;5023443;27;103353;-56
2023/04/18 07:57:27;;;;;;;15.80;12.63;;;;;;;10.24;80.14;99129.88;5014240;27;104479;-56
2023/04/18 07:59:56;;;;;;;13.87;12.13;;;;;;;10.02;81.05;99130.34;5030216;27;102630;-56
2023/04/18 08:02:25;;;;;;;14.43;11.87;;;;;;;10.36;80.89;99129.91;5031697;27;102740;-56
2023/04/18 08:04:54;;;;;;;14.30;11.97;;;;;;;10.25;79.64;99127.13;5005858;27;103452;-56
2023/04/18 08:07:28;;;;;;;14.90;12.27;;;;;;;10.09;80.52;99133.44;4994390;27;105779;-55
2023/04/18 08:09:57;;;;;;;14.07;12.27;;;;;;;10.36;79.61;99127.28;5009082;27;102703;-56
2023/04/18 08:12:25;;;;;;;14.87;12.63;;;;;;;10.46;78.98;99136.31;5031288;27;102806;-56
2023/04/18 08:14:54;;;;;;;15.07;13.47;;;;;;;10.80;79.43;99139.38;5023655;27;103218;-55
2023/04/18 08:17:23;;;;;;;14.87;13.20;;;;;;;11.06;79.75;99136.69;4993945;27;103654;-56
2023/04/18 08:19:51;;;;;;;13.47;12.07;;;;;;;10.98;77.60;99128.41;5010378;27;103088;-56
2023/04/18 08:22:19;;;;;;;14.40;12.37;;;;;;;11.02;77.72;99135.22;5004368;27;103889;-56
2023/04/18 08:24:52;;;;;;;13.60;11.73;;;;;;;11.13;77.12;99125.69;5027254;27;104333;-56
2023/04/18 08:27:24;;;;;;;15.83;13.20;;;;;;;11.53;78.11;99137.91;5025616;27;103578;-56
2023/04/18 08:29:52;;;;;;;14.10;12.53;;;;;;;11.19;76.52;99141.16;5027235;27;102750;-56
2023/04/18 08:32:20;;;;;;;14.33;12.43;;;;;;;11.33;76.87;99141.06;5023757;27;102608;-57
2023/04/18 08:34:49;;;;;;;13.93;12.43;;;;;;;11.21;76.24;99144.53;5028741;27;103201;-57
2023/04/18 08:37:18;;;;;;;15.10;12.97;;;;;;;11.54;75.79;99142.22;5013027;27;102872;-57
2023/04/18 08:39:48;;;;;;;15.47;13.07;;;;;;;11.47;76.58;99140.97;5023565;27;102587;-57
2023/04/18 08:42:20;;;;;;;14.67;12.63;;;;;;;11.57;76.31;99142.00;5028335;27;102654;-57
2023/04/18 08:44:50;;;;;;;15.03;12.23;;;;;;;11.68;76.24;99144.75;5026251;27;103435;-57
2023/04/18 08:47:20;;;;;;;14.77;12.57;;;;;;;11.61;76.94;99146.16;5025342;27;103214;-57
2023/04/18 08:49:51;;;;;;;14.53;12.77;;;;;;;11.45;76.40;99148.16;5008087;27;103009;-57
2023/04/18 08:52:22;;;;;;;13.57;12.03;;;;;;;11.75;74.28;99145.22;5010343;27;102769;-57
2023/04/18 08:54:51;;;;;;;14.40;12.70;;;;;;;11.45;76.22;99153.44;5017029;27;102647;-57
2023/04/18 08:57:25;;;;;;;14.80;13.20;;;;;;;11.65;74.42;99144.97;5018010;27;104536;-57
2023/04/18 08:59:55;;;;;;;15.13;12.60;;;;;;;11.73;75.03;99150.63;5021962;27;102978;-57
2023/04/18 09:02:37;;;;;;;13.27;11.87;;;;;;;12.10;73.78;99149.69;5026966;27;102612;-57
2023/04/18 09:05:12;;;;;;;14.67;12.30;;;;;;;12.23;73.20;99152.34;5026143;27;103220;-58
2023/04/18 09:07:41;;;;;;;14.70;12.60;;;;;;;11.72;74.14;99159.50;5024282;27;103546;-58
2023/04/18 09:10:12;;;;;;;14.23;12.20;;;;;;;11.32;75.43;99152.56;5025949;27;102621;-58
2023/04/18 09:12:48;;;;;;;13.27;11.87;;;;;;;12.33;73.72;99144.53;5011293;27;102976;-58
2023/04/18 09:15:21;;;;;;;13.57;12.17;;;;;;;12.02;74.20;99149.41;5023689;27;103282;-57
2023/04/18 09:17:52;;;;;;;13.73;11.87;;;;;;;12.06;74.00;99155.34;5008673;27;103110;-58
2023/04/18 09:20:36;;;;;;;13.40;11.97;;;;;;;11.56;74.94;99162.31;5024285;27;102644;-58
2023/04/18 09:23:09;;;;;;;13.60;12.20;;;;;;;11.53;76.20;99156.41;5026498;27;102596;-57
2023/04/18 09:25:45;;;;;;;14.10;12.13;;;;;;;11.72;75.88;99158.66;5024037;27;103365;-57
2023/04/18 09:28:26;;;;;;;13.87;11.47;;;;;;;11.50;76.23;99161.91;5026055;27;103395;-58
2023/04/18 09:30:56;;;;;;;15.23;12.07;;;;;;;12.08;75.10;99148.97;5005197;27;102719;-58
2023/04/18 09:33:28;;;;;;;13.50;12.13;;;;;;;11.67;76.55;99160.75;5025507;27;102631;-57
2023/04/18 09:36:00;;;;;;;13.83;12.00;;;;;;;11.83;76.73;99154.31;5026756;27;104568;-57
2023/04/18 09:38:43;;;;;;;13.60;11.73;;;;;;;11.88;76.51;99157.47;5023992;27;104319;-57
2023/04/18 09:41:12;;;;;;;12.57;11.30;;;;;;;12.42;74.64;99151.84;5027147;27;102823;-58
2023/04/18 09:43:41;;;;;;;14.17;11.37;;;;;;;12.42;73.32;99151.84;5023061;27;102821;-58
2023/04/18 09:46:09;;;;;;;13.30;11.37;;;;;;;12.79;72.39;99150.84;5028634;27;104369;-57
2023/04/18 09:48:38;;;;;;;12.60;11.33;;;;;;;12.54;73.39;99150.94;5008828;27;103288;-58
2023/04/18 09:51:10;;;;;;;13.57;11.83;;;;;;;12.40;73.06;99148.47;5026900;27;102709;-56
2023/04/18 09:53:40;;;;;;;11.87;10.67;;;;;;;12.71;72.05;99153.22;5024249;27;102594;-56
2023/04/18 09:56:12;;;;;;;12.30;10.47;;;;;;;13.18;69.69;99147.88;5026144;27;104717;-56
2023/04/18 09:58:47;;;;;;;12.13;10.67;;;;;;;13.50;67.96;99152.53;5026869;27;103426;-56
2023/04/18 10:01:15;;;;;;;12.23;10.80;;;;;;;12.93;67.93;99145.34;5007807;27;102717;-56
2023/04/18 10:03:47;;;;;;;10.80;9.70;;;;;;;13.41;67.84;99150.59;5025308;27;102674;-56
2023/04/18 10:06:17;;;;;;;11.13;9.70;;;;;;;13.31;67.16;99147.78;5025783;27;103227;-56
2023/04/18 10:08:45;;;;;;;10.77;9.67;;;;;;;13.51;66.79;99147.09;5032542;27;103064;-56
2023/04/18 10:11:14;;;;;;;10.40;9.40;;;;;;;13.58;66.84;99147.47;5028508;27;102671;-56
2023/04/18 10:13:47;;;;;;;10.73;9.63;;;;;;;13.64;66.11;99142.53;5008922;27;103249;-57
2023/04/18 10:16:16;;;;;;;9.80;8.80;;;;;;;13.84;65.30;99140.97;5028156;27;104566;-58
2023/04/18 10:18:45;;;;;;;10.10;8.80;;;;;;;13.83;64.99;99144.59;5010211;27;103336;-58
2023/04/18 10:21:14;;;;;;;10.03;9.03;;;;;;;13.08;67.02;99144.22;4996707;27;104689;-59
2023/04/18 10:23:42;;;;;;;9.73;8.73;;;;;;;13.81;66.83;99135.94;5025633;27;102615;-59
2023/04/18 10:26:11;;;;;;;9.63;8.73;;;;;;;13.79;66.95;99140.50;5033036;27;103288;-59
2023/04/18 10:28:53;;;;;;;9.67;8.47;;;;;;;13.53;65.31;99136.38;5026833;27;103153;-59
2023/04/18 10:31:22;;;;;;;9.63;8.70;;;;;;;13.79;64.94;99132.53;5028677;27;102629;-59
2023/04/18 10:33:52;;;;;;;9.13;8.20;;;;;;;14.43;64.02;99123.78;5032631;27;102605;-59
2023/04/18 10:36:31;;;;;;;10.70;9.10;;;;;;;14.24;64.04;99128.03;5023091;27;104481;-59
2023/04/18 10:39:21;;;;;;;11.30;8.90;;;;;;;14.33;63.32;99128.16;5027849;27;104413;-58
2023/04/18 10:41:50;;;;;;;9.63;8.63;;;;;;;14.37;66.16;99128.78;5029806;27;102931;-59
2023/04/18 10:44:23;;;;;;;9.10;8.20;;;;;;;14.50;65.28;99121.47;5032012;27;102846;-59
2023/04/18 10:47:23;;;;;;;9.97;8.97;;;;;;;13.71;66.64;99126.97;5028207;27;104467;-59
2023/04/18 10:50:02;;;;;;;10.07;8.93;;;;;;;13.74;67.33;99124.06;5026534;27;104289;-59
2023/04/18 10:52:34;;;;;;;9.13;8.20;;;;;;;13.44;67.86;99126.47;5030502;27;103110;-59
2023/04/18 10:55:15;;;;;;;10.00;9.00;;;;;;;13.56;67.69;99125.53;5010413;27;102800;-58
2023/04/18 10:57:44;;;;;;;9.57;8.40;;;;;;;13.65;69.46;99127.44;5025271;27;103832;-59
2023/04/18 11:00:16;;;;;;;8.90;8.10;;;;;;;13.76;67.50;99127.44;5030107;27;103814;-58
2023/04/18 11:02:49;;;;;;;10.10;9.07;;;;;;;14.19;67.45;99114.25;5024098;27;102654;-59
2023/04/18 11:05:24;;;;;;;9.93;8.67;;;;;;;14.47;66.19;99114.59;5026125;27;103160;-59
2023/04/18 11:07:55;;;;;;;10.63;8.47;;;;;;;13.82;67.60;99111.03;5025533;27;103194;-59
2023/04/18 11:10:25;;;;;;;9.60;8.70;;;;;;;14.13;67.16;99104.13;5018613;27;104312;-58
2023/04/18 11:12:55;;;;;;;9.00;8.07;;;;;;;14.40;66.96;99100.09;5018247;27;102567;-59
2023/04/18 11:15:25;;;;;;;9.50;8.50;;;;;;;14.23;66.97;99108.56;5004583;27;102826;-59
2023/04/18 11:18:01;;;;;;;8.53;7.57;;;;;;;13.96;67.95;99097.50;5000346;27;106464;-59
2023/04/18 11:20:41;;;;;;;8.77;7.67;;;;;;;13.93;67.39;99098.59;4993884;27;103693;-59
2023/04/18 11:23:24;;;;;;;8.57;7.63;;;;;;;14.20;66.41;99100.88;4988780;27;103252;-59
2023/04/18 11:25:57;;;;;;;8.47;7.67;;;;;;;13.75;67.14;99105.34;4988586;27;102721;-57
2023/04/18 11:28:40;;;;;;;7.80;6.87;;;;;;;14.36;66.64;99095.19;4988057;27;103415;-60
2023/04/18 11:31:40;;;;;;;8.43;7.63;;;;;;;13.24;68.66;99097.00;5007650;27;103003;-60
2023/04/18 11:34:09;;;;;;;7.93;7.07;;;;;;;13.64;69.06;99107.19;5005859;27;102772;-58